Time;durP1;ratioP1;P1;durP2;ratioP2;P2;SDS_P1;SDS_P2;PMS_P1;PMS_P2;Temp;Humidity;BMP_temperature;BMP_pressure;BME280_temperature;BME280_humidity;BME280_pressure;Samples;Min_cycle;Max_cycle;Signal;HPM_P1;HPM_P2
2022/12/10 00:03:39;;;;;;;;;;;;;;;15.58;35.61;94278.47;10414492;28;2327;-53
2022/12/10 00:08:49;;;;;;;;;;;;;;;15.60;35.61;94284.19;10434864;28;2371;-50
2022/12/10 00:13:50;;;;;;;;;;;;;;;15.55;35.67;94281.66;10435406;28;2320;-52
2022/12/10 00:18:50;;;;;;;;;;;;;;;15.57;35.70;94274.31;10434702;28;2416;-53
2022/12/10 00:23:50;;;;;;;;;;;;;;;15.57;35.57;94266.47;10430974;28;2330;-52
2022/12/10 00:28:50;;;;;;;;;;;;;;;15.57;35.67;94268.31;10435233;28;2394;-53
2022/12/10 00:33:52;;;;;;;;;;;;;;;15.56;35.66;94262.28;10442911;28;2377;-52
2022/12/10 00:38:52;;;;;;;;;;;;;;;15.53;35.81;94270.69;10426989;28;2431;-53
2022/12/10 00:43:53;;;;;;;;;;;;;;;15.52;35.77;94271.75;10436046;28;2459;-53
2022/12/10 00:48:53;;;;;;;;;;;;;;;15.53;35.73;94277.75;10429138;28;2292;-52
2022/12/10 00:53:54;;;;;;;;;;;;;;;15.59;35.55;94282.66;10428583;28;2365;-53
2022/12/10 00:58:54;;;;;;;;;;;;;;;15.55;35.58;94281.66;10433780;28;2281;-53
2022/12/10 01:03:56;;;;;;;;;;;;;;;15.55;35.72;94297.31;10432256;28;2349;-52
2022/12/10 01:08:56;;;;;;;;;;;;;;;15.48;35.73;94309.91;10432808;28;2317;-53
2022/12/10 01:13:57;;;;;;;;;;;;;;;15.54;35.65;94308.81;10428254;28;2280;-52
2022/12/10 01:18:58;;;;;;;;;;;;;;;15.54;35.46;94302.81;10442188;28;1971;-51
2022/12/10 01:23:58;;;;;;;;;;;;;;;15.52;35.73;94300.47;10433981;28;1946;-52
2022/12/10 01:28:59;;;;;;;;;;;;;;;15.50;35.71;94299.22;10426993;28;2331;-53
2022/12/10 01:33:59;;;;;;;;;;;;;;;15.53;35.50;94302.03;10433211;28;2283;-55
2022/12/10 01:38:59;;;;;;;;;;;;;;;15.49;35.80;94306.25;10432971;28;2389;-51
2022/12/10 01:44:08;;;;;;;;;;;;;;;15.49;35.65;94314.09;10440897;28;2263;-53
2022/12/10 01:49:15;;;;;;;;;;;;;;;15.48;35.70;94318.53;10433994;28;2298;-50
2022/12/10 01:54:17;;;;;;;;;;;;;;;15.45;35.83;94324.31;10446371;28;1934;-53
2022/12/10 01:59:17;;;;;;;;;;;;;;;15.43;35.74;94323.03;10431074;28;2448;-52
2022/12/10 02:04:36;;;;;;;;;;;;;;;15.44;35.75;94321.97;10418917;28;2300;-53
2022/12/10 02:09:44;;;;;;;;;;;;;;;15.48;35.65;94336.03;10430971;28;2351;-50
2022/12/10 02:15:00;;;;;;;;;;;;;;;15.43;35.75;94330.84;10420858;28;2333;-51
2022/12/10 02:20:07;;;;;;;;;;;;;;;15.46;35.55;94325.84;10440678;28;1933;-51
2022/12/10 02:25:07;;;;;;;;;;;;;;;15.43;35.71;94326.38;10410774;28;2317;-50
2022/12/10 02:30:08;;;;;;;;;;;;;;;15.43;35.70;94328.25;10426706;28;2478;-54
2022/12/10 02:35:10;;;;;;;;;;;;;;;15.43;35.66;94320.41;10414196;28;1973;-51
2022/12/10 02:40:11;;;;;;;;;;;;;;;15.42;35.72;94313.59;10419329;28;2055;-52
2022/12/10 02:45:11;;;;;;;;;;;;;;;15.41;35.71;94304.22;10426182;28;2315;-53
2022/12/10 02:50:12;;;;;;;;;;;;;;;15.39;35.89;94309.69;10410659;28;1978;-54
2022/12/10 02:55:12;;;;;;;;;;;;;;;15.43;35.60;94304.75;10438475;28;2354;-51
2022/12/10 03:00:19;;;;;;;;;;;;;;;15.40;35.64;94300.03;10431773;28;1953;-53
2022/12/10 03:05:38;;;;;;;;;;;;;;;15.40;35.76;94300.81;10419587;28;2398;-54
2022/12/10 03:10:38;;;;;;;;;;;;;;;15.38;35.66;94300.31;10428047;28;2392;-50
2022/12/10 03:15:39;;;;;;;;;;;;;;;15.34;35.75;94299.31;10422317;28;2288;-54
2022/12/10 03:20:42;;;;;;;;;;;;;;;15.38;35.53;94299.53;10423710;28;2351;-51
2022/12/10 03:25:49;;;;;;;;;;;;;;;15.44;35.70;94291.41;10446406;28;2330;-54
2022/12/10 03:30:49;;;;;;;;;;;;;;;15.34;35.72;94295.91;10427578;28;2260;-53
2022/12/10 03:35:50;;;;;;;;;;;;;;;15.32;35.78;94296.19;10429239;28;2057;-52
2022/12/10 03:41:00;;;;;;;;;;;;;;;15.36;35.76;94293.81;10451061;28;2276;-54
2022/12/10 03:46:01;;;;;;;;;;;;;;;15.35;35.70;94287.78;10425040;28;2304;-48
2022/12/10 03:51:01;;;;;;;;;;;;;;;15.33;35.73;94284.69;10442441;28;2312;-51
2022/12/10 03:56:01;;;;;;;;;;;;;;;15.32;35.66;94304.03;10424562;28;1979;-53
2022/12/10 04:01:05;;;;;;;;;;;;;;;15.34;35.60;94290.69;10428689;28;2293;-52
2022/12/10 04:06:06;;;;;;;;;;;;;;;15.32;35.85;94292.81;10434553;28;1930;-52
2022/12/10 04:11:07;;;;;;;;;;;;;;;15.32;35.73;94298.03;10422854;28;2324;-52
2022/12/10 04:26:53;;;;;;;;;;;;;;;15.33;35.65;94305.56;10433706;28;2045;-51
2022/12/10 04:31:53;;;;;;;;;;;;;;;15.32;35.56;94298.81;10433755;28;2278;-52
2022/12/10 04:36:53;;;;;;;;;;;;;;;15.31;35.65;94306.91;10431568;28;2346;-54
2022/12/10 04:41:54;;;;;;;;;;;;;;;15.28;35.81;94310.06;10435241;28;2278;-53
2022/12/10 04:46:54;;;;;;;;;;;;;;;15.30;35.65;94313.19;10434801;28;1966;-54
2022/12/10 04:51:55;;;;;;;;;;;;;;;15.25;35.59;94323.69;10440031;28;2024;-52
2022/12/10 04:56:55;;;;;;;;;;;;;;;15.30;35.75;94318.41;10435282;28;2371;-52
2022/12/10 05:01:55;;;;;;;;;;;;;;;15.20;35.77;94306.22;10424448;28;2361;-53
2022/12/10 05:06:56;;;;;;;;;;;;;;;15.31;35.56;94312.13;10430353;28;2339;-53
2022/12/10 05:11:56;;;;;;;;;;;;;;;15.24;35.75;94314.28;10432236;28;2406;-53
2022/12/10 05:16:56;;;;;;;;;;;;;;;15.27;35.64;94313.75;10434057;28;2316;-55
2022/12/10 05:27:15;;;;;;;;;;;;;;;15.30;35.67;94302.75;10433982;28;1923;-54
2022/12/10 05:32:15;;;;;;;;;;;;;;;15.25;35.52;94300.19;10434449;28;2270;-54
2022/12/10 05:37:16;;;;;;;;;;;;;;;15.20;35.75;94306.22;10424944;28;2361;-49
2022/12/10 05:42:16;;;;;;;;;;;;;;;15.27;35.51;94316.34;10433132;28;2320;-54
2022/12/10 05:47:16;;;;;;;;;;;;;;;15.26;35.65;94320.00;10430357;28;2285;-52
2022/12/10 05:52:16;;;;;;;;;;;;;;;15.22;35.72;94324.22;10443080;28;2352;-54
2022/12/10 05:57:17;;;;;;;;;;;;;;;15.23;35.81;94315.31;10432711;28;2292;-53
2022/12/10 06:02:17;;;;;;;;;;;;;;;15.19;35.68;94324.75;10427316;28;1945;-53
2022/12/10 06:07:17;;;;;;;;;;;;;;;15.22;35.66;94338.06;10432270;28;2312;-54
2022/12/10 06:12:17;;;;;;;;;;;;;;;15.21;35.60;94338.31;10426953;28;2344;-52
2022/12/10 06:17:18;;;;;;;;;;;;;;;15.16;35.64;94338.34;10434632;28;2293;-54
2022/12/10 06:22:18;;;;;;;;;;;;;;;15.16;35.79;94333.94;10435883;28;2398;-53
2022/12/10 06:27:18;;;;;;;;;;;;;;;15.16;35.60;94327.91;10424429;28;2277;-51
2022/12/10 06:32:18;;;;;;;;;;;;;;;15.17;35.70;94326.84;10426549;28;2533;-53
2022/12/10 06:37:19;;;;;;;;;;;;;;;15.18;35.83;94334.44;10423094;28;2097;-55
2022/12/10 06:42:19;;;;;;;;;;;;;;;15.17;35.77;94326.84;10430572;28;2370;-51
2022/12/10 06:47:20;;;;;;;;;;;;;;;15.19;35.57;94324.75;10432186;28;2280;-52
2022/12/10 06:52:20;;;;;;;;;;;;;;;15.15;35.65;94336.78;10427889;28;2427;-55
2022/12/10 06:57:20;;;;;;;;;;;;;;;15.12;35.77;94334.75;10434651;28;2374;-48
2022/12/10 07:02:20;;;;;;;;;;;;;;;15.14;35.65;94333.41;10421005;28;2338;-49
2022/12/10 07:07:21;;;;;;;;;;;;;;;15.13;35.73;94324.03;10427034;28;2325;-53
2022/12/10 07:12:21;;;;;;;;;;;;;;;15.16;35.61;94328.72;10423560;28;2270;-50
2022/12/10 07:17:21;;;;;;;;;;;;;;;15.14;35.72;94340.47;10426305;28;2356;-53
2022/12/10 07:22:22;;;;;;;;;;;;;;;15.11;35.73;94339.16;10435224;28;1890;-52
2022/12/10 07:27:22;;;;;;;;;;;;;;;15.12;35.81;94339.97;10424057;28;2258;-54
2022/12/10 07:32:22;;;;;;;;;;;;;;;15.14;35.59;94345.69;10426601;28;2335;-55
2022/12/10 07:37:23;;;;;;;;;;;;;;;15.12;35.66;94353.00;10435935;28;2312;-51
2022/12/10 07:42:23;;;;;;;;;;;;;;;15.13;35.72;94362.38;10428063;28;2000;-50
2022/12/10 07:47:23;;;;;;;;;;;;;;;15.10;35.74;94344.66;10420057;28;2373;-52
2022/12/10 07:52:23;;;;;;;;;;;;;;;15.10;35.74;94348.06;10434513;28;2301;-53
2022/12/10 07:57:24;;;;;;;;;;;;;;;15.07;35.62;94343.38;10434994;28;2354;-51
2022/12/10 08:02:28;;;;;;;;;;;;;;;15.08;35.76;94342.34;10437235;28;2328;-52
2022/12/10 08:07:28;;;;;;;;;;;;;;;15.10;35.57;94349.88;10451975;28;1660;-50
2022/12/10 08:12:28;;;;;;;;;;;;;;;15.09;35.54;94356.94;10450860;28;2398;-54
2022/12/10 08:17:29;;;;;;;;;;;;;;;15.12;35.53;94350.41;10468384;28;1906;-53
2022/12/10 08:22:29;;;;;;;;;;;;;;;15.13;35.51;94346.72;10433801;28;2321;-52
2022/12/10 08:27:29;;;;;;;;;;;;;;;15.07;35.64;94353.03;10436663;28;2386;-50
2022/12/10 08:32:30;;;;;;;;;;;;;;;15.07;35.75;94364.25;10438822;28;2074;-49
2022/12/10 08:37:30;;;;;;;;;;;;;;;15.09;35.79;94379.63;10428596;28;2481;-53
2022/12/10 08:42:30;;;;;;;;;;;;;;;15.09;35.65;94366.59;10438740;28;2271;-52
2022/12/10 08:47:30;;;;;;;;;;;;;;;15.06;35.63;94351.47;10430138;28;2493;-54
2022/12/10 08:52:31;;;;;;;;;;;;;;;15.03;35.84;94365.06;10426997;28;2333;-54
2022/12/10 08:57:31;;;;;;;;;;;;;;;15.04;35.65;94374.47;10420869;28;2317;-52
2022/12/10 09:02:31;;;;;;;;;;;;;;;15.05;35.69;94376.78;10437587;28;2097;-53
2022/12/10 09:07:39;;;;;;;;;;;;;;;15.03;35.62;94381.50;10428098;28;2283;-52
2022/12/10 09:12:43;;;;;;;;;;;;;;;15.07;35.69;94376.50;10422447;28;2247;-52
2022/12/10 09:17:44;;;;;;;;;;;;;;;15.00;35.88;94374.19;10425791;28;2330;-54
2022/12/10 09:22:44;;;;;;;;;;;;;;;14.99;35.78;94387.53;10437941;28;2273;-51
2022/12/10 09:27:44;;;;;;;;;;;;;;;15.00;35.81;94383.88;10432376;28;2345;-52
2022/12/10 09:32:44;;;;;;;;;;;;;;;15.04;35.78;94392.72;10424539;28;2337;-54
2022/12/10 09:37:45;;;;;;;;;;;;;;;15.05;35.77;94392.44;10435768;28;2323;-51
2022/12/10 09:42:45;;;;;;;;;;;;;;;15.01;35.58;94391.44;10444358;28;2277;-54
2022/12/10 09:47:52;;;;;;;;;;;;;;;15.02;35.90;94398.19;10414729;28;2260;-53
2022/12/10 09:52:54;;;;;;;;;;;;;;;14.97;35.77;94394.84;10439989;28;2360;-52
2022/12/10 09:57:55;;;;;;;;;;;;;;;15.00;35.88;94392.47;10436090;28;2615;-53
2022/12/10 10:02:56;;;;;;;;;;;;;;;14.98;35.79;94397.19;10435205;28;2252;-49
2022/12/10 10:07:58;;;;;;;;;;;;;;;14.97;35.88;94389.63;10422320;28;2305;-54
2022/12/10 10:13:08;;;;;;;;;;;;;;;14.97;35.98;94389.63;10427729;28;2350;-52
2022/12/10 10:18:13;;;;;;;;;;;;;;;14.92;36.03;94381.84;10427276;28;2667;-54
2022/12/10 10:23:14;;;;;;;;;;;;;;;15.01;35.76;94382.81;10429849;28;2433;-52
2022/12/10 10:28:17;;;;;;;;;;;;;;;14.94;35.90;94390.94;10444196;28;2353;-53
2022/12/10 10:33:17;;;;;;;;;;;;;;;14.96;35.82;94385.47;10428810;28;2330;-52
2022/12/10 10:38:22;;;;;;;;;;;;;;;14.95;36.02;94387.31;10425489;28;2296;-53
2022/12/10 10:43:33;;;;;;;;;;;;;;;14.99;35.81;94377.09;10429925;28;2279;-54
2022/12/10 10:48:33;;;;;;;;;;;;;;;14.96;35.94;94380.25;10428873;28;1919;-55
2022/12/10 10:53:44;;;;;;;;;;;;;;;14.99;35.79;94377.88;10435881;28;2342;-50
2022/12/10 10:58:55;;;;;;;;;;;;;;;14.92;35.92;94374.03;10431137;28;2274;-54
2022/12/10 11:03:55;;;;;;;;;;;;;;;14.93;36.00;94370.34;10443209;28;2324;-53
2022/12/10 11:08:56;;;;;;;;;;;;;;;14.91;36.04;94369.84;10430473;28;2243;-52
2022/12/10 11:14:17;;;;;;;;;;;;;;;14.93;35.83;94358.09;10425933;28;2359;-50
2022/12/10 11:19:19;;;;;;;;;;;;;;;14.96;35.98;94372.44;10410026;28;1950;-50
2022/12/10 11:24:20;;;;;;;;;;;;;;;14.94;35.92;94370.06;10428966;28;1981;-52
2022/12/10 11:29:39;;;;;;;;;;;;;;;14.94;35.83;94354.41;10431299;28;2041;-53
2022/12/10 11:34:58;;;;;;;;;;;;;;;14.91;35.99;94357.59;10434776;28;2350;-55
2022/12/10 11:40:10;;;;;;;;;;;;;;;14.90;35.96;94357.88;10429985;28;2354;-52
2022/12/10 11:45:18;;;;;;;;;;;;;;;14.91;36.05;94359.41;10422467;28;2298;-50
2022/12/10 11:50:22;;;;;;;;;;;;;;;14.92;36.00;94355.75;10424964;28;1911;-52
2022/12/10 11:55:35;;;;;;;;;;;;;;;14.88;36.04;94352.91;10428347;28;2323;-55
2022/12/10 12:00:46;;;;;;;;;;;;;;;14.89;36.05;94351.84;10438494;28;2329;-51
2022/12/10 12:05:59;;;;;;;;;;;;;;;14.87;35.99;94371.44;10429220;28;2314;-54
2022/12/10 12:11:14;;;;;;;;;;;;;;;14.92;35.89;94368.81;10426068;28;2317;-53
2022/12/10 12:16:16;;;;;;;;;;;;;;;14.84;36.11;94364.16;10432568;28;2365;-52
2022/12/10 12:21:16;;;;;;;;;;;;;;;14.89;35.88;94369.34;10419110;28;2023;-52
2022/12/10 12:26:16;;;;;;;;;;;;;;;14.86;36.08;94380.31;10420244;28;2325;-50
2022/12/10 12:31:29;;;;;;;;;;;;;;;14.85;36.10;94378.75;10425840;28;2049;-54
2022/12/10 12:36:30;;;;;;;;;;;;;;;14.89;36.03;94377.16;10422208;28;2333;-53
2022/12/10 12:41:32;;;;;;;;;;;;;;;14.86;35.96;94388.16;10419003;28;2289;-54
2022/12/10 12:46:35;;;;;;;;;;;;;;;14.81;36.18;94385.56;10444221;28;2369;-49
2022/12/10 12:51:39;;;;;;;;;;;;;;;14.89;35.94;94393.59;10430042;28;2392;-54
2022/12/10 12:56:57;;;;;;;;;;;;;;;14.84;36.04;94400.69;10434961;28;2307;-53
2022/12/10 13:02:16;;;;;;;;;;;;;;;14.82;35.97;94406.16;10436526;28;2275;-51
2022/12/10 13:07:20;;;;;;;;;;;;;;;14.79;36.03;94414.53;10437069;28;2311;-52
2022/12/10 13:12:27;;;;;;;;;;;;;;;14.77;36.10;94403.59;10433532;28;2447;-52
2022/12/10 13:17:34;;;;;;;;;;;;;;;14.78;36.11;94418.16;10429617;28;2229;-52
2022/12/10 13:22:38;;;;;;;;;;;;;;;14.79;36.11;94421.56;10433356;28;2269;-55
2022/12/10 13:27:38;;;;;;;;;;;;;;;14.79;36.02;94430.19;10457179;28;2257;-55
2022/12/10 13:32:39;;;;;;;;;;;;;;;14.80;36.25;94425.72;10419924;28;2448;-51
2022/12/10 13:37:48;;;;;;;;;;;;;;;14.75;36.19;94436.19;10432578;28;2044;-54
2022/12/10 13:48:25;;;;;;;;;;;;;;;14.76;36.02;94456.00;10432246;28;2334;-52
2022/12/10 13:53:47;;;;;;;;;;;;;;;14.82;35.92;94466.16;10424550;28;2323;-53
2022/12/10 13:59:10;;;;;;;;;;;;;;;14.77;36.10;94473.22;10436921;28;2467;-53
2022/12/10 14:04:10;;;;;;;;;;;;;;;14.78;35.94;94477.38;10431798;28;2264;-51
2022/12/10 14:09:11;;;;;;;;;;;;;;;14.78;36.10;94487.81;10422116;28;2265;-55
2022/12/10 14:14:13;;;;;;;;;;;;;;;14.75;35.97;94483.94;10431594;28;2109;-53
2022/12/10 14:19:14;;;;;;;;;;;;;;;14.80;36.14;94496.16;10429147;28;2479;-52
2022/12/10 14:24:29;;;;;;;;;;;;;;;14.77;36.15;94501.91;10435572;28;2305;-52
2022/12/10 14:29:29;;;;;;;;;;;;;;;14.76;36.09;94502.94;10429928;28;2312;-52
2022/12/10 14:34:30;;;;;;;;;;;;;;;14.73;36.16;94504.28;10427360;28;2369;-50
2022/12/10 14:39:31;;;;;;;;;;;;;;;14.77;35.95;94515.75;10435600;28;2327;-52
2022/12/10 14:44:32;;;;;;;;;;;;;;;14.77;35.92;94518.34;10431406;28;2325;-51
2022/12/10 14:49:32;;;;;;;;;;;;;;;14.75;35.95;94522.28;10427083;28;2350;-53
2022/12/10 14:54:33;;;;;;;;;;;;;;;14.72;35.99;94538.44;10432812;28;2407;-54
2022/12/10 14:59:34;;;;;;;;;;;;;;;14.70;36.13;94546.53;10428487;28;2342;-52
2022/12/10 15:04:41;;;;;;;;;;;;;;;14.75;36.05;94543.13;10426799;28;2002;-49
2022/12/10 15:09:42;;;;;;;;;;;;;;;14.71;35.96;94547.31;10431163;28;2343;-53
2022/12/10 15:14:42;;;;;;;;;;;;;;;14.67;36.13;94557.50;10421870;28;2308;-52
2022/12/10 15:19:42;;;;;;;;;;;;;;;14.72;35.90;94569.75;10425875;28;2092;-54
2022/12/10 15:24:44;;;;;;;;;;;;;;;14.72;35.90;94572.34;10427489;28;2274;-53
2022/12/10 15:29:44;;;;;;;;;;;;;;;14.68;36.12;94583.31;10422279;28;2397;-49
2022/12/10 15:34:46;;;;;;;;;;;;;;;14.69;35.89;94584.88;10424412;28;2349;-55
2022/12/10 15:39:48;;;;;;;;;;;;;;;14.68;36.09;94583.31;10429719;28;2303;-53
2022/12/10 15:44:48;;;;;;;;;;;;;;;14.72;35.89;94580.16;10430155;28;1981;-53
2022/12/10 15:49:49;;;;;;;;;;;;;;;14.66;35.90;94585.41;10430693;28;2312;-52
2022/12/10 15:54:50;;;;;;;;;;;;;;;14.66;36.03;94587.22;10431905;28;1911;-52
2022/12/10 15:59:51;;;;;;;;;;;;;;;14.68;35.77;94590.34;10430884;28;2045;-52
2022/12/10 16:04:52;;;;;;;;;;;;;;;14.67;36.02;94618.25;10413435;28;2287;-52
2022/12/10 16:09:52;;;;;;;;;;;;;;;14.61;36.04;94614.09;10427267;28;2041;-49
2022/12/10 16:14:56;;;;;;;;;;;;;;;14.66;35.87;94611.50;10428565;28;2350;-54
2022/12/10 16:20:00;;;;;;;;;;;;;;;14.60;36.12;94615.16;10429709;28;2568;-51
2022/12/10 16:25:01;;;;;;;;;;;;;;;14.63;36.01;94625.03;10440491;28;2300;-53
2022/12/10 16:30:09;;;;;;;;;;;;;;;14.61;36.13;94628.97;10418753;28;1967;-52
2022/12/10 16:35:10;;;;;;;;;;;;;;;14.61;36.07;94637.56;10422538;28;2669;-52
2022/12/10 16:40:13;;;;;;;;;;;;;;;14.64;35.92;94633.66;10440295;28;2389;-51
2022/12/10 16:45:14;;;;;;;;;;;;;;;14.67;35.85;94639.13;10427840;28;2362;-52
2022/12/10 16:50:15;;;;;;;;;;;;;;;14.65;36.02;94648.28;10432028;28;2290;-53
2022/12/10 16:55:16;;;;;;;;;;;;;;;14.62;35.95;94644.38;10428783;28;2408;-54
2022/12/10 17:00:17;;;;;;;;;;;;;;;14.61;35.94;94648.00;10440203;28;2030;-53
2022/12/10 17:05:17;;;;;;;;;;;;;;;14.63;36.06;94661.56;10434540;28;2326;-52
2022/12/10 17:11:44;;;;;;;;;;;;;;;14.62;35.97;94661.81;10430149;28;2280;-54
2022/12/10 17:15:38;;;;;;;;;;;;;;;14.56;36.06;94668.09;10441966;28;2577;-51
2022/12/10 17:20:38;;;;;;;;;;;;;;;14.58;35.94;94672.00;10437058;28;2751;-53
2022/12/10 17:25:39;;;;;;;;;;;;;;;14.58;35.99;94672.00;10426411;28;2693;-52
2022/12/10 17:30:39;;;;;;;;;;;;;;;14.58;36.15;94668.63;10429656;28;2621;-51
2022/12/10 17:35:43;;;;;;;;;;;;;;;14.55;36.11;94679.56;10433386;28;2591;-52
2022/12/10 17:40:46;;;;;;;;;;;;;;;14.53;36.15;94687.66;10439832;28;2620;-52
2022/12/10 17:45:46;;;;;;;;;;;;;;;14.61;35.86;94689.72;10435592;28;2545;-54
2022/12/10 17:50:46;;;;;;;;;;;;;;;14.57;35.83;94687.91;10427728;28;2655;-53
2022/12/10 17:55:51;;;;;;;;;;;;;;;14.58;35.92;94685.06;10442349;28;2533;-52
2022/12/10 18:00:52;;;;;;;;;;;;;;;14.53;36.10;94682.44;10433591;28;2602;-51
2022/12/10 18:05:52;;;;;;;;;;;;;;;14.56;35.80;94686.34;10436172;28;2569;-51
2022/12/10 18:10:53;;;;;;;;;;;;;;;14.50;35.96;94690.78;10422747;28;2576;-52
2022/12/10 18:15:53;;;;;;;;;;;;;;;14.52;36.01;94693.13;10426451;28;2592;-53
2022/12/10 18:20:53;;;;;;;;;;;;;;;14.51;36.08;94694.94;10432208;28;2640;-55
2022/12/10 18:25:54;;;;;;;;;;;;;;;14.51;36.00;94700.16;10432136;28;2547;-53
2022/12/10 18:30:54;;;;;;;;;;;;;;;14.53;36.07;94697.28;10418268;28;2579;-49
2022/12/10 18:36:04;;;;;;;;;;;;;;;14.51;35.67;94709.81;10431643;28;2025;-52
2022/12/10 18:41:07;;;;;;;;;;;;;;;14.48;35.85;94712.94;10423115;28;2578;-51
2022/12/10 18:46:24;;;;;;;;;;;;;;;14.51;35.87;94721.03;10450931;28;1968;-53
2022/12/10 18:51:24;;;;;;;;;;;;;;;14.52;35.80;94716.59;10442481;28;2586;-52
2022/12/10 18:56:29;;;;;;;;;;;;;;;14.50;35.95;94723.91;10427945;28;2579;-50
2022/12/10 19:01:29;;;;;;;;;;;;;;;14.50;35.98;94724.69;10443916;28;2727;-53
2022/12/10 19:06:30;;;;;;;;;;;;;;;14.46;35.88;94721.03;10433750;28;2590;-53
2022/12/10 19:11:30;;;;;;;;;;;;;;;14.49;35.93;94730.13;10431252;28;2695;-54
2022/12/10 19:16:30;;;;;;;;;;;;;;;14.47;35.85;94737.44;10431711;28;2014;-49
2022/12/10 19:21:31;;;;;;;;;;;;;;;14.51;35.68;94743.69;10425596;28;2594;-52
2022/12/10 19:26:32;;;;;;;;;;;;;;;14.45;35.75;94732.50;10449847;28;2546;-53
2022/12/10 19:31:32;;;;;;;;;;;;;;;14.44;35.91;94736.16;10429413;28;2698;-52
2022/12/10 19:36:33;;;;;;;;;;;;;;;14.43;35.97;94739.78;10435496;28;2046;-54
2022/12/10 19:41:33;;;;;;;;;;;;;;;14.44;35.84;94737.97;10431800;28;2019;-52
2022/12/10 19:46:34;;;;;;;;;;;;;;;14.47;35.84;94732.22;10414821;28;2927;-52
2022/12/10 19:51:34;;;;;;;;;;;;;;;14.47;35.76;94732.22;10425136;28;2541;-50
2022/12/10 19:56:34;;;;;;;;;;;;;;;14.41;35.80;94725.44;10442441;28;2053;-50
2022/12/10 20:01:35;;;;;;;;;;;;;;;14.44;35.75;94725.72;10435498;28;2556;-52
2022/12/10 20:06:38;;;;;;;;;;;;;;;14.43;35.68;94733.78;10439884;28;2702;-52
2022/12/10 20:11:39;;;;;;;;;;;;;;;14.45;35.57;94742.13;10433508;28;2563;-54
2022/12/10 20:16:40;;;;;;;;;;;;;;;14.42;35.77;94743.44;10440520;28;2582;-52
2022/12/10 20:21:40;;;;;;;;;;;;;;;14.41;35.74;94743.69;10451793;28;2558;-52
2022/12/10 20:26:42;;;;;;;;;;;;;;;14.43;35.80;94737.19;10438841;28;2638;-51
2022/12/10 20:31:42;;;;;;;;;;;;;;;14.45;35.58;94735.09;10462448;28;2669;-49
2022/12/10 20:36:43;;;;;;;;;;;;;;;14.34;35.78;94736.13;10475465;28;2602;-51
2022/12/10 20:41:43;;;;;;;;;;;;;;;14.39;35.71;94735.34;10457783;28;2625;-50
2022/12/10 20:46:44;;;;;;;;;;;;;;;14.40;35.63;94742.94;10435536;28;2596;-52
2022/12/10 20:51:44;;;;;;;;;;;;;;;14.42;35.59;94743.44;10421195;28;2598;-52
2022/12/10 20:56:44;;;;;;;;;;;;;;;14.38;35.70;94752.84;10442006;28;1999;-52
2022/12/10 21:01:45;;;;;;;;;;;;;;;14.40;35.59;94750.75;10417588;28;2599;-52
2022/12/10 21:06:45;;;;;;;;;;;;;;;14.45;35.67;94755.16;10438875;28;2575;-49
2022/12/10 21:11:45;;;;;;;;;;;;;;;14.37;35.70;94755.69;10435947;28;1978;-54
2022/12/10 21:16:46;;;;;;;;;;;;;;;14.40;35.69;94761.19;10435943;28;2630;-54
2022/12/10 21:21:46;;;;;;;;;;;;;;;14.38;35.73;94760.66;10408406;28;2126;-55
2022/12/10 21:26:46;;;;;;;;;;;;;;;14.36;35.63;94751.53;10438989;28;2638;-50
2022/12/10 21:31:47;;;;;;;;;;;;;;;14.36;35.74;94760.09;10435171;28;2029;-51
2022/12/10 21:36:47;;;;;;;;;;;;;;;14.37;35.80;94764.28;10412046;28;2613;-56
2022/12/10 21:47:26;;;;;;;;;;;;;;;14.29;35.84;94745.75;10321344;28;2806;-55
2022/12/10 21:52:26;;;;;;;;;;;;;;;14.31;35.78;94751.50;10405173;28;2639;-54
2022/12/10 21:57:27;;;;;;;;;;;;;;;14.28;35.83;94752.00;10436025;28;2610;-50
2022/12/10 22:02:27;;;;;;;;;;;;;;;14.29;35.86;94743.94;10429517;28;2609;-54
2022/12/10 22:07:28;;;;;;;;;;;;;;;14.32;35.72;94759.06;10425069;28;2690;-52
2022/12/10 22:12:29;;;;;;;;;;;;;;;14.36;35.65;94764.56;10438350;28;2630;-49
2022/12/10 22:17:29;;;;;;;;;;;;;;;14.28;35.87;94765.81;10430669;28;2613;-52
2022/12/10 22:22:29;;;;;;;;;;;;;;;14.32;35.79;94759.06;10431020;28;2626;-54
2022/12/10 22:27:31;;;;;;;;;;;;;;;14.30;35.68;94760.38;10442889;28;2532;-55
2022/12/10 22:32:32;;;;;;;;;;;;;;;14.31;35.60;94754.88;10430975;28;2555;-55
2022/12/10 22:37:32;;;;;;;;;;;;;;;14.28;35.74;94762.41;10436427;28;2576;-54
2022/12/10 22:42:37;;;;;;;;;;;;;;;14.31;35.69;94765.31;10437031;28;2614;-51
2022/12/10 22:47:37;;;;;;;;;;;;;;;14.32;35.48;94758.28;10428643;28;2033;-54
2022/12/10 22:52:37;;;;;;;;;;;;;;;14.29;35.72;94756.97;10428162;28;2613;-54
2022/12/10 22:57:37;;;;;;;;;;;;;;;14.26;35.85;94754.06;10434704;28;2561;-51
2022/12/10 23:02:38;;;;;;;;;;;;;;;14.28;35.72;94757.22;10424954;28;2545;-51
2022/12/10 23:07:39;;;;;;;;;;;;;;;14.27;35.64;94755.63;10427516;28;2034;-52
2022/12/10 23:17:59;;;;;;;;;;;;;;;14.25;35.73;94752.50;10429857;28;2638;-55
2022/12/10 23:23:00;;;;;;;;;;;;;;;14.24;35.67;94748.34;10420290;28;2014;-54
2022/12/10 23:28:00;;;;;;;;;;;;;;;14.24;35.60;94751.69;10440702;28;2519;-54
2022/12/10 23:33:00;;;;;;;;;;;;;;;14.18;35.67;94752.72;10423189;28;2565;-54
2022/12/10 23:38:00;;;;;;;;;;;;;;;14.20;35.84;94753.25;10445584;28;2822;-53
2022/12/10 23:43:01;;;;;;;;;;;;;;;14.19;35.63;94751.72;10457779;28;2092;-55
2022/12/10 23:48:01;;;;;;;;;;;;;;;14.20;35.83;94753.25;10431026;28;2720;-54
2022/12/10 23:53:02;;;;;;;;;;;;;;;14.23;35.54;94746.75;10438689;28;2548;-50
2022/12/10 23:58:02;;;;;;;;;;;;;;;14.16;35.83;94739.19;10420153;28;2182;-49
